sensor_id;sensor_type;location;lat;lon;timestamp;P1;durP1;ratioP1;P2;durP2;ratioP2
12958;SDS011;6544;51.666;6.634;2022-10-15T00:01:18;21.38;;;16.92;;
12958;SDS011;6544;51.666;6.634;2022-10-15T00:03:46;19.65;;;16.23;;
12958;SDS011;6544;51.666;6.634;2022-10-15T00:06:14;21.35;;;17.25;;
12958;SDS011;6544;51.666;6.634;2022-10-15T00:08:42;19.75;;;16.27;;
12958;SDS011;6544;51.666;6.634;2022-10-15T00:11:12;18.85;;;16.60;;
12958;SDS011;6544;51.666;6.634;2022-10-15T00:13:41;18.70;;;15.55;;
12958;SDS011;6544;51.666;6.634;2022-10-15T00:16:08;19.40;;;16.77;;
12958;SDS011;6544;51.666;6.634;2022-10-15T00:18:39;21.38;;;15.52;;
12958;SDS011;6544;51.666;6.634;2022-10-15T00:21:06;19.10;;;17.05;;
12958;SDS011;6544;51.666;6.634;2022-10-15T00:23:36;19.45;;;17.10;;
12958;SDS011;6544;51.666;6.634;2022-10-15T00:26:04;21.48;;;17.00;;
12958;SDS011;6544;51.666;6.634;2022-10-15T00:28:32;20.80;;;17.45;;
12958;SDS011;6544;51.666;6.634;2022-10-15T00:31:00;21.17;;;17.50;;
12958;SDS011;6544;51.666;6.634;2022-10-15T00:33:29;32.70;;;20.60;;
12958;SDS011;6544;51.666;6.634;2022-10-15T00:36:04;42.50;;;24.92;;
12958;SDS011;6544;51.666;6.634;2022-10-15T00:38:33;40.15;;;23.50;;
12958;SDS011;6544;51.666;6.634;2022-10-15T00:41:00;42.38;;;25.25;;
12958;SDS011;6544;51.666;6.634;2022-10-15T00:43:35;41.53;;;24.20;;
12958;SDS011;6544;51.666;6.634;2022-10-15T00:46:04;44.72;;;25.73;;
12958;SDS011;6544;51.666;6.634;2022-10-15T00:48:39;42.80;;;27.25;;
12958;SDS011;6544;51.666;6.634;2022-10-15T00:51:08;53.30;;;28.77;;
12958;SDS011;6544;51.666;6.634;2022-10-15T00:53:35;47.47;;;30.02;;
12958;SDS011;6544;51.666;6.634;2022-10-15T00:56:02;55.60;;;32.95;;
12958;SDS011;6544;51.666;6.634;2022-10-15T00:58:30;46.45;;;29.40;;
12958;SDS011;6544;51.666;6.634;2022-10-15T01:00:59;42.83;;;29.65;;
12958;SDS011;6544;51.666;6.634;2022-10-15T01:03:26;45.55;;;30.15;;
12958;SDS011;6544;51.666;6.634;2022-10-15T01:05:53;39.50;;;27.77;;
12958;SDS011;6544;51.666;6.634;2022-10-15T01:08:22;34.40;;;25.73;;
12958;SDS011;6544;51.666;6.634;2022-10-15T01:10:57;37.10;;;27.05;;
12958;SDS011;6544;51.666;6.634;2022-10-15T01:13:34;54.63;;;24.98;;
12958;SDS011;6544;51.666;6.634;2022-10-15T01:16:05;32.30;;;24.17;;
12958;SDS011;6544;51.666;6.634;2022-10-15T01:18:37;33.60;;;21.23;;
12958;SDS011;6544;51.666;6.634;2022-10-15T01:21:08;37.05;;;20.27;;
12958;SDS011;6544;51.666;6.634;2022-10-15T01:27:27;38.22;;;17.70;;
12958;SDS011;6544;51.666;6.634;2022-10-15T01:30:03;25.05;;;20.20;;
12958;SDS011;6544;51.666;6.634;2022-10-15T01:32:40;33.88;;;19.48;;
12958;SDS011;6544;51.666;6.634;2022-10-15T01:35:15;30.33;;;19.33;;
12958;SDS011;6544;51.666;6.634;2022-10-15T01:37:49;26.77;;;18.35;;
12958;SDS011;6544;51.666;6.634;2022-10-15T01:40:19;18.98;;;16.88;;
12958;SDS011;6544;51.666;6.634;2022-10-15T01:42:52;20.10;;;17.95;;
12958;SDS011;6544;51.666;6.634;2022-10-15T01:45:24;21.23;;;17.75;;
12958;SDS011;6544;51.666;6.634;2022-10-15T01:47:55;21.90;;;16.77;;
12958;SDS011;6544;51.666;6.634;2022-10-15T01:50:27;19.48;;;17.48;;
12958;SDS011;6544;51.666;6.634;2022-10-15T01:52:57;20.17;;;16.45;;
12958;SDS011;6544;51.666;6.634;2022-10-15T01:55:25;23.83;;;15.73;;
12958;SDS011;6544;51.666;6.634;2022-10-15T01:57:55;17.42;;;15.63;;
12958;SDS011;6544;51.666;6.634;2022-10-15T02:00:25;17.20;;;15.52;;
12958;SDS011;6544;51.666;6.634;2022-10-15T02:02:52;23.10;;;17.00;;
12958;SDS011;6544;51.666;6.634;2022-10-15T02:05:24;18.02;;;15.45;;
12958;SDS011;6544;51.666;6.634;2022-10-15T02:07:57;24.08;;;15.82;;
12958;SDS011;6544;51.666;6.634;2022-10-15T02:10:31;18.40;;;14.75;;
12958;SDS011;6544;51.666;6.634;2022-10-15T02:13:08;16.63;;;15.02;;
12958;SDS011;6544;51.666;6.634;2022-10-15T02:15:43;23.08;;;17.98;;
12958;SDS011;6544;51.666;6.634;2022-10-15T02:18:17;21.40;;;18.73;;
12958;SDS011;6544;51.666;6.634;2022-10-15T02:20:50;20.17;;;18.08;;
12958;SDS011;6544;51.666;6.634;2022-10-15T02:23:23;18.58;;;16.45;;
12958;SDS011;6544;51.666;6.634;2022-10-15T02:26:00;19.08;;;17.17;;
12958;SDS011;6544;51.666;6.634;2022-10-15T02:28:31;18.58;;;16.77;;
12958;SDS011;6544;51.666;6.634;2022-10-15T02:31:03;18.80;;;16.80;;
12958;SDS011;6544;51.666;6.634;2022-10-15T02:33:31;17.63;;;15.82;;
12958;SDS011;6544;51.666;6.634;2022-10-15T02:36:00;16.27;;;14.57;;
12958;SDS011;6544;51.666;6.634;2022-10-15T02:38:28;15.73;;;14.23;;
12958;SDS011;6544;51.666;6.634;2022-10-15T02:40:58;15.80;;;14.18;;
12958;SDS011;6544;51.666;6.634;2022-10-15T02:43:25;15.27;;;13.88;;
12958;SDS011;6544;51.666;6.634;2022-10-15T02:45:52;16.40;;;14.70;;
12958;SDS011;6544;51.666;6.634;2022-10-15T02:48:20;17.02;;;15.30;;
12958;SDS011;6544;51.666;6.634;2022-10-15T02:50:47;16.38;;;14.73;;
12958;SDS011;6544;51.666;6.634;2022-10-15T02:53:14;16.83;;;15.07;;
12958;SDS011;6544;51.666;6.634;2022-10-15T02:55:41;15.88;;;14.27;;
12958;SDS011;6544;51.666;6.634;2022-10-15T02:58:07;17.98;;;15.88;;
12958;SDS011;6544;51.666;6.634;2022-10-15T03:00:34;18.20;;;16.30;;
12958;SDS011;6544;51.666;6.634;2022-10-15T03:03:01;19.63;;;17.48;;
12958;SDS011;6544;51.666;6.634;2022-10-15T03:05:29;18.77;;;16.90;;
12958;SDS011;6544;51.666;6.634;2022-10-15T03:07:57;19.30;;;17.40;;
12958;SDS011;6544;51.666;6.634;2022-10-15T03:10:25;20.08;;;17.98;;
12958;SDS011;6544;51.666;6.634;2022-10-15T03:12:52;21.23;;;18.85;;
12958;SDS011;6544;51.666;6.634;2022-10-15T03:15:18;20.52;;;18.42;;
12958;SDS011;6544;51.666;6.634;2022-10-15T03:17:45;20.98;;;17.85;;
12958;SDS011;6544;51.666;6.634;2022-10-15T03:20:12;20.83;;;17.25;;
12958;SDS011;6544;51.666;6.634;2022-10-15T03:22:40;18.88;;;16.88;;
12958;SDS011;6544;51.666;6.634;2022-10-15T03:25:07;22.80;;;17.45;;
12958;SDS011;6544;51.666;6.634;2022-10-15T03:27:34;22.48;;;17.77;;
12958;SDS011;6544;51.666;6.634;2022-10-15T03:30:01;19.17;;;17.17;;
12958;SDS011;6544;51.666;6.634;2022-10-15T03:32:28;28.30;;;17.10;;
12958;SDS011;6544;51.666;6.634;2022-10-15T03:34:55;36.05;;;16.77;;
12958;SDS011;6544;51.666;6.634;2022-10-15T03:37:22;17.95;;;16.15;;
12958;SDS011;6544;51.666;6.634;2022-10-15T03:39:50;23.20;;;15.43;;
12958;SDS011;6544;51.666;6.634;2022-10-15T03:42:17;22.70;;;17.70;;
12958;SDS011;6544;51.666;6.634;2022-10-15T03:44:44;21.40;;;18.48;;
12958;SDS011;6544;51.666;6.634;2022-10-15T03:47:11;21.35;;;19.05;;
12958;SDS011;6544;51.666;6.634;2022-10-15T03:49:38;22.77;;;19.92;;
12958;SDS011;6544;51.666;6.634;2022-10-15T03:52:04;25.48;;;21.88;;
12958;SDS011;6544;51.666;6.634;2022-10-15T03:54:31;30.52;;;24.05;;
12958;SDS011;6544;51.666;6.634;2022-10-15T03:57:00;28.70;;;24.08;;
12958;SDS011;6544;51.666;6.634;2022-10-15T03:59:26;27.77;;;24.25;;
12958;SDS011;6544;51.666;6.634;2022-10-15T04:01:53;29.88;;;25.35;;
12958;SDS011;6544;51.666;6.634;2022-10-15T04:04:20;32.22;;;23.77;;
12958;SDS011;6544;51.666;6.634;2022-10-15T04:06:48;27.00;;;23.20;;
12958;SDS011;6544;51.666;6.634;2022-10-15T04:09:14;26.20;;;22.42;;
12958;SDS011;6544;51.666;6.634;2022-10-15T04:11:41;28.48;;;23.48;;
12958;SDS011;6544;51.666;6.634;2022-10-15T04:14:09;28.80;;;23.88;;
12958;SDS011;6544;51.666;6.634;2022-10-15T04:16:36;26.17;;;23.15;;
12958;SDS011;6544;51.666;6.634;2022-10-15T04:19:03;27.55;;;22.92;;
12958;SDS011;6544;51.666;6.634;2022-10-15T04:21:30;28.23;;;23.38;;
12958;SDS011;6544;51.666;6.634;2022-10-15T04:23:57;25.33;;;20.25;;
12958;SDS011;6544;51.666;6.634;2022-10-15T04:26:24;27.23;;;22.48;;
12958;SDS011;6544;51.666;6.634;2022-10-15T04:28:51;25.60;;;22.00;;
12958;SDS011;6544;51.666;6.634;2022-10-15T04:31:19;24.23;;;21.63;;
12958;SDS011;6544;51.666;6.634;2022-10-15T04:33:46;25.08;;;22.45;;
12958;SDS011;6544;51.666;6.634;2022-10-15T04:36:14;27.35;;;23.10;;
12958;SDS011;6544;51.666;6.634;2022-10-15T04:38:41;25.75;;;22.13;;
12958;SDS011;6544;51.666;6.634;2022-10-15T04:41:08;27.30;;;24.20;;
12958;SDS011;6544;51.666;6.634;2022-10-15T04:43:36;29.77;;;25.00;;
12958;SDS011;6544;51.666;6.634;2022-10-15T04:46:05;29.05;;;24.05;;
12958;SDS011;6544;51.666;6.634;2022-10-15T04:48:34;33.40;;;25.80;;
12958;SDS011;6544;51.666;6.634;2022-10-15T04:51:03;28.15;;;25.05;;
12958;SDS011;6544;51.666;6.634;2022-10-15T04:53:31;29.85;;;26.27;;
12958;SDS011;6544;51.666;6.634;2022-10-15T04:56:01;30.27;;;26.33;;
12958;SDS011;6544;51.666;6.634;2022-10-15T04:58:30;29.67;;;26.48;;
12958;SDS011;6544;51.666;6.634;2022-10-15T05:01:00;27.38;;;23.30;;
12958;SDS011;6544;51.666;6.634;2022-10-15T05:03:27;32.03;;;26.17;;
12958;SDS011;6544;51.666;6.634;2022-10-15T05:05:59;27.48;;;24.15;;
12958;SDS011;6544;51.666;6.634;2022-10-15T05:08:27;31.75;;;28.35;;
12958;SDS011;6544;51.666;6.634;2022-10-15T05:10:54;30.20;;;26.10;;
12958;SDS011;6544;51.666;6.634;2022-10-15T05:13:24;32.67;;;29.17;;
12958;SDS011;6544;51.666;6.634;2022-10-15T05:15:51;37.53;;;29.65;;
12958;SDS011;6544;51.666;6.634;2022-10-15T05:18:18;34.10;;;29.15;;
12958;SDS011;6544;51.666;6.634;2022-10-15T05:20:45;36.22;;;30.95;;
12958;SDS011;6544;51.666;6.634;2022-10-15T05:23:13;32.60;;;28.73;;
12958;SDS011;6544;51.666;6.634;2022-10-15T05:25:40;31.77;;;28.38;;
12958;SDS011;6544;51.666;6.634;2022-10-15T05:28:07;29.98;;;26.58;;
12958;SDS011;6544;51.666;6.634;2022-10-15T05:30:34;31.45;;;27.35;;
12958;SDS011;6544;51.666;6.634;2022-10-15T05:33:01;30.48;;;26.15;;
12958;SDS011;6544;51.666;6.634;2022-10-15T05:35:28;30.58;;;27.25;;
12958;SDS011;6544;51.666;6.634;2022-10-15T05:37:55;31.52;;;26.52;;
12958;SDS011;6544;51.666;6.634;2022-10-15T05:40:23;33.88;;;27.27;;
12958;SDS011;6544;51.666;6.634;2022-10-15T05:42:50;34.05;;;28.58;;
12958;SDS011;6544;51.666;6.634;2022-10-15T05:45:17;34.70;;;30.98;;
12958;SDS011;6544;51.666;6.634;2022-10-15T05:47:44;33.33;;;29.83;;
12958;SDS011;6544;51.666;6.634;2022-10-15T05:50:11;32.10;;;27.73;;
12958;SDS011;6544;51.666;6.634;2022-10-15T05:52:38;31.85;;;28.35;;
12958;SDS011;6544;51.666;6.634;2022-10-15T05:55:05;28.63;;;23.08;;
12958;SDS011;6544;51.666;6.634;2022-10-15T05:57:34;31.20;;;25.92;;
12958;SDS011;6544;51.666;6.634;2022-10-15T06:00:01;25.83;;;22.17;;
12958;SDS011;6544;51.666;6.634;2022-10-15T06:02:28;34.17;;;24.95;;
12958;SDS011;6544;51.666;6.634;2022-10-15T06:04:55;32.53;;;27.15;;
12958;SDS011;6544;51.666;6.634;2022-10-15T06:07:22;34.10;;;29.02;;
12958;SDS011;6544;51.666;6.634;2022-10-15T06:09:49;38.05;;;29.25;;
12958;SDS011;6544;51.666;6.634;2022-10-15T06:12:16;31.92;;;28.42;;
12958;SDS011;6544;51.666;6.634;2022-10-15T06:14:44;35.17;;;28.58;;
12958;SDS011;6544;51.666;6.634;2022-10-15T06:17:11;25.52;;;21.75;;
12958;SDS011;6544;51.666;6.634;2022-10-15T06:19:38;28.15;;;23.38;;
12958;SDS011;6544;51.666;6.634;2022-10-15T06:22:04;30.13;;;24.27;;
12958;SDS011;6544;51.666;6.634;2022-10-15T06:24:31;27.63;;;23.10;;
12958;SDS011;6544;51.666;6.634;2022-10-15T06:26:58;29.20;;;23.95;;
12958;SDS011;6544;51.666;6.634;2022-10-15T06:29:28;29.95;;;25.85;;
12958;SDS011;6544;51.666;6.634;2022-10-15T06:31:56;31.60;;;25.92;;
12958;SDS011;6544;51.666;6.634;2022-10-15T06:34:23;29.98;;;23.42;;
12958;SDS011;6544;51.666;6.634;2022-10-15T06:36:50;33.95;;;28.20;;
12958;SDS011;6544;51.666;6.634;2022-10-15T06:39:16;36.13;;;26.92;;
12958;SDS011;6544;51.666;6.634;2022-10-15T06:41:43;40.22;;;30.23;;
12958;SDS011;6544;51.666;6.634;2022-10-15T06:44:10;43.17;;;29.50;;
12958;SDS011;6544;51.666;6.634;2022-10-15T06:46:37;45.13;;;34.33;;
12958;SDS011;6544;51.666;6.634;2022-10-15T06:49:05;46.75;;;34.50;;
12958;SDS011;6544;51.666;6.634;2022-10-15T06:51:32;35.88;;;26.52;;
12958;SDS011;6544;51.666;6.634;2022-10-15T06:54:01;39.72;;;31.40;;
12958;SDS011;6544;51.666;6.634;2022-10-15T06:56:28;41.92;;;30.67;;
12958;SDS011;6544;51.666;6.634;2022-10-15T06:58:55;34.70;;;25.45;;
12958;SDS011;6544;51.666;6.634;2022-10-15T07:01:22;35.20;;;24.77;;
12958;SDS011;6544;51.666;6.634;2022-10-15T07:03:48;33.88;;;26.00;;
12958;SDS011;6544;51.666;6.634;2022-10-15T07:06:17;32.80;;;24.65;;
12958;SDS011;6544;51.666;6.634;2022-10-15T07:08:44;36.92;;;28.27;;
12958;SDS011;6544;51.666;6.634;2022-10-15T07:11:11;34.60;;;25.33;;
12958;SDS011;6544;51.666;6.634;2022-10-15T07:13:37;36.90;;;28.65;;
12958;SDS011;6544;51.666;6.634;2022-10-15T07:16:06;34.63;;;24.38;;
12958;SDS011;6544;51.666;6.634;2022-10-15T07:18:34;37.53;;;24.17;;
12958;SDS011;6544;51.666;6.634;2022-10-15T07:21:02;39.38;;;27.45;;
12958;SDS011;6544;51.666;6.634;2022-10-15T07:23:32;38.72;;;25.27;;
12958;SDS011;6544;51.666;6.634;2022-10-15T07:25:59;45.25;;;29.85;;
12958;SDS011;6544;51.666;6.634;2022-10-15T07:28:27;42.55;;;29.88;;
12958;SDS011;6544;51.666;6.634;2022-10-15T07:30:53;45.20;;;29.20;;
12958;SDS011;6544;51.666;6.634;2022-10-15T07:33:24;53.50;;;36.10;;
12958;SDS011;6544;51.666;6.634;2022-10-15T07:35:51;52.08;;;35.72;;
12958;SDS011;6544;51.666;6.634;2022-10-15T07:38:18;57.70;;;39.60;;
12958;SDS011;6544;51.666;6.634;2022-10-15T07:40:46;58.97;;;37.33;;
12958;SDS011;6544;51.666;6.634;2022-10-15T07:43:13;54.50;;;36.42;;
12958;SDS011;6544;51.666;6.634;2022-10-15T07:45:41;60.08;;;38.05;;
12958;SDS011;6544;51.666;6.634;2022-10-15T07:48:13;53.10;;;36.05;;
12958;SDS011;6544;51.666;6.634;2022-10-15T07:50:41;49.95;;;35.47;;
12958;SDS011;6544;51.666;6.634;2022-10-15T07:53:08;50.42;;;33.67;;
12958;SDS011;6544;51.666;6.634;2022-10-15T07:55:35;45.00;;;30.73;;
12958;SDS011;6544;51.666;6.634;2022-10-15T07:58:03;42.75;;;30.15;;
12958;SDS011;6544;51.666;6.634;2022-10-15T08:00:32;49.95;;;32.17;;
12958;SDS011;6544;51.666;6.634;2022-10-15T08:02:59;39.30;;;26.75;;
12958;SDS011;6544;51.666;6.634;2022-10-15T08:05:26;41.95;;;30.20;;
12958;SDS011;6544;51.666;6.634;2022-10-15T08:07:53;42.13;;;29.95;;
12958;SDS011;6544;51.666;6.634;2022-10-15T08:10:20;45.22;;;30.17;;
12958;SDS011;6544;51.666;6.634;2022-10-15T08:12:47;37.08;;;26.52;;
12958;SDS011;6544;51.666;6.634;2022-10-15T08:15:15;46.72;;;29.98;;
12958;SDS011;6544;51.666;6.634;2022-10-15T08:17:42;41.03;;;29.98;;
12958;SDS011;6544;51.666;6.634;2022-10-15T08:20:09;38.38;;;27.10;;
12958;SDS011;6544;51.666;6.634;2022-10-15T08:22:37;39.20;;;28.55;;
12958;SDS011;6544;51.666;6.634;2022-10-15T08:25:04;42.75;;;28.13;;
12958;SDS011;6544;51.666;6.634;2022-10-15T08:27:31;42.10;;;28.20;;
12958;SDS011;6544;51.666;6.634;2022-10-15T08:29:58;34.58;;;24.48;;
12958;SDS011;6544;51.666;6.634;2022-10-15T08:32:26;35.10;;;23.75;;
12958;SDS011;6544;51.666;6.634;2022-10-15T08:34:53;33.17;;;23.73;;
12958;SDS011;6544;51.666;6.634;2022-10-15T08:37:20;34.80;;;23.00;;
12958;SDS011;6544;51.666;6.634;2022-10-15T08:39:47;35.17;;;26.70;;
12958;SDS011;6544;51.666;6.634;2022-10-15T08:42:15;35.55;;;26.70;;
12958;SDS011;6544;51.666;6.634;2022-10-15T08:44:49;37.10;;;22.42;;
12958;SDS011;6544;51.666;6.634;2022-10-15T08:47:25;33.70;;;26.35;;
12958;SDS011;6544;51.666;6.634;2022-10-15T08:49:57;34.67;;;24.88;;
12958;SDS011;6544;51.666;6.634;2022-10-15T08:52:28;33.60;;;24.27;;
12958;SDS011;6544;51.666;6.634;2022-10-15T08:55:07;32.20;;;24.20;;
12958;SDS011;6544;51.666;6.634;2022-10-15T08:57:37;29.27;;;22.52;;
12958;SDS011;6544;51.666;6.634;2022-10-15T09:00:11;32.95;;;23.30;;
12958;SDS011;6544;51.666;6.634;2022-10-15T09:02:45;28.42;;;19.33;;
12958;SDS011;6544;51.666;6.634;2022-10-15T09:05:23;26.65;;;18.58;;
12958;SDS011;6544;51.666;6.634;2022-10-15T09:07:58;22.88;;;18.05;;
12958;SDS011;6544;51.666;6.634;2022-10-15T09:10:38;26.00;;;20.27;;
12958;SDS011;6544;51.666;6.634;2022-10-15T09:13:12;24.83;;;18.27;;
12958;SDS011;6544;51.666;6.634;2022-10-15T09:15:47;22.77;;;17.58;;
12958;SDS011;6544;51.666;6.634;2022-10-15T09:18:19;27.40;;;20.65;;
12958;SDS011;6544;51.666;6.634;2022-10-15T09:20:48;21.42;;;17.05;;
12958;SDS011;6544;51.666;6.634;2022-10-15T09:23:17;19.15;;;16.02;;
12958;SDS011;6544;51.666;6.634;2022-10-15T09:25:50;22.25;;;17.52;;
12958;SDS011;6544;51.666;6.634;2022-10-15T09:28:24;20.00;;;17.52;;
12958;SDS011;6544;51.666;6.634;2022-10-15T09:31:03;18.25;;;15.40;;
12958;SDS011;6544;51.666;6.634;2022-10-15T09:33:36;19.00;;;15.70;;
12958;SDS011;6544;51.666;6.634;2022-10-15T09:36:16;19.35;;;13.23;;
12958;SDS011;6544;51.666;6.634;2022-10-15T09:38:55;15.68;;;12.77;;
12958;SDS011;6544;51.666;6.634;2022-10-15T09:41:31;16.10;;;12.23;;
12958;SDS011;6544;51.666;6.634;2022-10-15T09:44:07;14.57;;;11.50;;
12958;SDS011;6544;51.666;6.634;2022-10-15T09:46:42;11.98;;;9.70;;
12958;SDS011;6544;51.666;6.634;2022-10-15T09:49:11;9.20;;;7.95;;
12958;SDS011;6544;51.666;6.634;2022-10-15T09:51:44;9.65;;;7.43;;
12958;SDS011;6544;51.666;6.634;2022-10-15T09:54:19;10.07;;;7.78;;
12958;SDS011;6544;51.666;6.634;2022-10-15T09:56:53;7.82;;;6.80;;
12958;SDS011;6544;51.666;6.634;2022-10-15T09:59:22;7.90;;;6.95;;
12958;SDS011;6544;51.666;6.634;2022-10-15T10:01:57;10.05;;;7.20;;
12958;SDS011;6544;51.666;6.634;2022-10-15T10:04:27;9.45;;;5.70;;
12958;SDS011;6544;51.666;6.634;2022-10-15T10:06:55;6.72;;;6.03;;
12958;SDS011;6544;51.666;6.634;2022-10-15T10:09:24;7.43;;;5.28;;
12958;SDS011;6544;51.666;6.634;2022-10-15T10:11:57;8.18;;;6.13;;
12958;SDS011;6544;51.666;6.634;2022-10-15T10:14:27;7.32;;;5.82;;
12958;SDS011;6544;51.666;6.634;2022-10-15T10:17:04;7.45;;;5.80;;
12958;SDS011;6544;51.666;6.634;2022-10-15T10:19:34;7.50;;;5.82;;
12958;SDS011;6544;51.666;6.634;2022-10-15T10:22:05;8.98;;;6.90;;
12958;SDS011;6544;51.666;6.634;2022-10-15T10:24:39;10.95;;;6.80;;
12958;SDS011;6544;51.666;6.634;2022-10-15T10:27:15;9.27;;;6.70;;
12958;SDS011;6544;51.666;6.634;2022-10-15T10:29:52;9.45;;;6.70;;
12958;SDS011;6544;51.666;6.634;2022-10-15T10:32:22;6.18;;;5.55;;
12958;SDS011;6544;51.666;6.634;2022-10-15T10:34:54;6.88;;;5.93;;
12958;SDS011;6544;51.666;6.634;2022-10-15T10:37:21;8.85;;;6.55;;
12958;SDS011;6544;51.666;6.634;2022-10-15T10:39:52;7.50;;;5.72;;
12958;SDS011;6544;51.666;6.634;2022-10-15T10:42:25;9.70;;;5.75;;
12958;SDS011;6544;51.666;6.634;2022-10-15T10:45:16;12.43;;;6.60;;
12958;SDS011;6544;51.666;6.634;2022-10-15T10:47:44;7.57;;;5.20;;
12958;SDS011;6544;51.666;6.634;2022-10-15T10:50:26;9.80;;;6.00;;
12958;SDS011;6544;51.666;6.634;2022-10-15T10:52:55;7.22;;;5.05;;
12958;SDS011;6544;51.666;6.634;2022-10-15T10:55:24;8.75;;;6.25;;
12958;SDS011;6544;51.666;6.634;2022-10-15T10:57:59;10.10;;;5.30;;
12958;SDS011;6544;51.666;6.634;2022-10-15T11:00:31;11.25;;;5.25;;
12958;SDS011;6544;51.666;6.634;2022-10-15T11:03:03;7.03;;;5.40;;
12958;SDS011;6544;51.666;6.634;2022-10-15T11:05:32;6.75;;;4.65;;
12958;SDS011;6544;51.666;6.634;2022-10-15T11:08:07;8.05;;;5.32;;
12958;SDS011;6544;51.666;6.634;2022-10-15T11:10:40;7.95;;;4.82;;
12958;SDS011;6544;51.666;6.634;2022-10-15T11:13:19;6.72;;;4.95;;
12958;SDS011;6544;51.666;6.634;2022-10-15T11:15:58;11.70;;;5.75;;
12958;SDS011;6544;51.666;6.634;2022-10-15T11:18:34;5.70;;;4.60;;
12958;SDS011;6544;51.666;6.634;2022-10-15T11:21:18;6.85;;;5.13;;
12958;SDS011;6544;51.666;6.634;2022-10-15T11:23:59;8.82;;;5.20;;
12958;SDS011;6544;51.666;6.634;2022-10-15T11:26:43;8.55;;;5.03;;
12958;SDS011;6544;51.666;6.634;2022-10-15T11:29:22;4.47;;;3.88;;
12958;SDS011;6544;51.666;6.634;2022-10-15T11:31:57;5.75;;;4.90;;
12958;SDS011;6544;51.666;6.634;2022-10-15T11:34:36;6.32;;;4.63;;
12958;SDS011;6544;51.666;6.634;2022-10-15T11:37:17;6.85;;;4.13;;
12958;SDS011;6544;51.666;6.634;2022-10-15T11:39:56;5.85;;;4.32;;
12958;SDS011;6544;51.666;6.634;2022-10-15T11:42:36;5.30;;;4.22;;
12958;SDS011;6544;51.666;6.634;2022-10-15T11:45:19;4.88;;;3.85;;
12958;SDS011;6544;51.666;6.634;2022-10-15T11:48:08;6.25;;;3.85;;
12958;SDS011;6544;51.666;6.634;2022-10-15T11:50:40;4.97;;;4.10;;
12958;SDS011;6544;51.666;6.634;2022-10-15T11:56:05;4.97;;;3.70;;
12958;SDS011;6544;51.666;6.634;2022-10-15T11:58:40;4.28;;;3.45;;
12958;SDS011;6544;51.666;6.634;2022-10-15T12:01:11;4.97;;;3.35;;
12958;SDS011;6544;51.666;6.634;2022-10-15T12:03:45;4.28;;;3.22;;
12958;SDS011;6544;51.666;6.634;2022-10-15T12:06:17;3.30;;;3.00;;
12958;SDS011;6544;51.666;6.634;2022-10-15T12:08:50;3.35;;;3.05;;
12958;SDS011;6544;51.666;6.634;2022-10-15T12:11:21;4.30;;;2.92;;
12958;SDS011;6544;51.666;6.634;2022-10-15T12:13:55;5.22;;;3.10;;
12958;SDS011;6544;51.666;6.634;2022-10-15T12:16:29;4.00;;;3.20;;
12958;SDS011;6544;51.666;6.634;2022-10-15T12:19:06;3.67;;;3.08;;
12958;SDS011;6544;51.666;6.634;2022-10-15T12:21:39;4.75;;;3.00;;
12958;SDS011;6544;51.666;6.634;2022-10-15T12:27:18;4.90;;;3.45;;
12958;SDS011;6544;51.666;6.634;2022-10-15T12:32:54;4.35;;;3.35;;
12958;SDS011;6544;51.666;6.634;2022-10-15T12:38:11;5.10;;;3.05;;
12958;SDS011;6544;51.666;6.634;2022-10-15T12:40:46;3.63;;;2.60;;
12958;SDS011;6544;51.666;6.634;2022-10-15T12:43:23;3.63;;;2.30;;
12958;SDS011;6544;51.666;6.634;2022-10-15T12:45:50;3.80;;;2.40;;
12958;SDS011;6544;51.666;6.634;2022-10-15T12:48:22;3.35;;;2.38;;
12958;SDS011;6544;51.666;6.634;2022-10-15T12:53:59;2.25;;;1.90;;
12958;SDS011;6544;51.666;6.634;2022-10-15T12:56:35;2.40;;;2.10;;
12958;SDS011;6544;51.666;6.634;2022-10-15T12:59:14;2.45;;;2.00;;
12958;SDS011;6544;51.666;6.634;2022-10-15T13:01:55;4.43;;;2.03;;
12958;SDS011;6544;51.666;6.634;2022-10-15T13:04:22;3.33;;;2.25;;
12958;SDS011;6544;51.666;6.634;2022-10-15T13:07:03;2.75;;;2.00;;
12958;SDS011;6544;51.666;6.634;2022-10-15T13:09:30;3.20;;;2.15;;
12958;SDS011;6544;51.666;6.634;2022-10-15T13:11:58;5.55;;;2.30;;
12958;SDS011;6544;51.666;6.634;2022-10-15T13:14:29;3.63;;;2.50;;
12958;SDS011;6544;51.666;6.634;2022-10-15T13:17:01;5.40;;;2.33;;
12958;SDS011;6544;51.666;6.634;2022-10-15T13:19:33;3.00;;;2.55;;
12958;SDS011;6544;51.666;6.634;2022-10-15T13:22:03;3.42;;;2.47;;
12958;SDS011;6544;51.666;6.634;2022-10-15T13:24:39;2.40;;;2.20;;
12958;SDS011;6544;51.666;6.634;2022-10-15T13:27:13;4.18;;;2.35;;
12958;SDS011;6544;51.666;6.634;2022-10-15T13:29:53;4.22;;;3.38;;
12958;SDS011;6544;51.666;6.634;2022-10-15T13:32:21;2.65;;;2.30;;
12958;SDS011;6544;51.666;6.634;2022-10-15T13:34:50;3.30;;;1.80;;
12958;SDS011;6544;51.666;6.634;2022-10-15T13:37:23;2.75;;;2.03;;
12958;SDS011;6544;51.666;6.634;2022-10-15T13:39:54;4.35;;;2.10;;
12958;SDS011;6544;51.666;6.634;2022-10-15T13:42:21;2.90;;;1.85;;
12958;SDS011;6544;51.666;6.634;2022-10-15T13:44:58;2.95;;;1.92;;
12958;SDS011;6544;51.666;6.634;2022-10-15T13:47:28;2.55;;;1.88;;
12958;SDS011;6544;51.666;6.634;2022-10-15T13:50:11;2.10;;;1.90;;
12958;SDS011;6544;51.666;6.634;2022-10-15T13:52:42;1.80;;;1.70;;
12958;SDS011;6544;51.666;6.634;2022-10-15T13:55:14;3.78;;;2.13;;
12958;SDS011;6544;51.666;6.634;2022-10-15T13:57:43;3.38;;;2.05;;
12958;SDS011;6544;51.666;6.634;2022-10-15T14:00:20;2.10;;;1.70;;
12958;SDS011;6544;51.666;6.634;2022-10-15T14:03:05;3.78;;;1.67;;
12958;SDS011;6544;51.666;6.634;2022-10-15T14:05:33;2.30;;;1.70;;
12958;SDS011;6544;51.666;6.634;2022-10-15T14:08:00;2.28;;;1.63;;
12958;SDS011;6544;51.666;6.634;2022-10-15T14:10:27;2.60;;;1.70;;
12958;SDS011;6544;51.666;6.634;2022-10-15T14:12:54;2.63;;;1.60;;
12958;SDS011;6544;51.666;6.634;2022-10-15T14:15:39;1.90;;;1.50;;
12958;SDS011;6544;51.666;6.634;2022-10-15T14:18:12;2.72;;;1.70;;
12958;SDS011;6544;51.666;6.634;2022-10-15T14:20:44;2.35;;;1.58;;
12958;SDS011;6544;51.666;6.634;2022-10-15T14:23:14;3.67;;;2.60;;
12958;SDS011;6544;51.666;6.634;2022-10-15T14:25:42;6.78;;;3.28;;
12958;SDS011;6544;51.666;6.634;2022-10-15T14:28:15;1.88;;;1.70;;
12958;SDS011;6544;51.666;6.634;2022-10-15T14:30:47;3.05;;;1.73;;
12958;SDS011;6544;51.666;6.634;2022-10-15T14:33:30;3.90;;;1.95;;
12958;SDS011;6544;51.666;6.634;2022-10-15T14:36:06;4.40;;;1.52;;
12958;SDS011;6544;51.666;6.634;2022-10-15T14:38:35;1.77;;;1.60;;
12958;SDS011;6544;51.666;6.634;2022-10-15T14:41:03;3.28;;;2.35;;
12958;SDS011;6544;51.666;6.634;2022-10-15T14:43:33;2.60;;;1.92;;
12958;SDS011;6544;51.666;6.634;2022-10-15T14:46:03;3.15;;;2.00;;
12958;SDS011;6544;51.666;6.634;2022-10-15T14:48:32;2.05;;;1.80;;
12958;SDS011;6544;51.666;6.634;2022-10-15T14:51:02;3.00;;;2.00;;
12958;SDS011;6544;51.666;6.634;2022-10-15T14:53:32;1.98;;;1.70;;
12958;SDS011;6544;51.666;6.634;2022-10-15T14:56:02;2.03;;;1.63;;
12958;SDS011;6544;51.666;6.634;2022-10-15T14:58:32;2.45;;;2.00;;
12958;SDS011;6544;51.666;6.634;2022-10-15T15:00:59;4.03;;;2.20;;
12958;SDS011;6544;51.666;6.634;2022-10-15T15:03:30;2.65;;;2.05;;
12958;SDS011;6544;51.666;6.634;2022-10-15T15:06:03;4.05;;;2.20;;
12958;SDS011;6544;51.666;6.634;2022-10-15T15:08:30;3.10;;;1.80;;
12958;SDS011;6544;51.666;6.634;2022-10-15T15:10:59;2.00;;;1.80;;
12958;SDS011;6544;51.666;6.634;2022-10-15T15:13:30;2.20;;;2.00;;
12958;SDS011;6544;51.666;6.634;2022-10-15T15:16:02;1.90;;;1.70;;
12958;SDS011;6544;51.666;6.634;2022-10-15T15:18:30;2.30;;;1.67;;
12958;SDS011;6544;51.666;6.634;2022-10-15T15:20:59;2.05;;;1.83;;